sensor_id;sensor_type;location;lat;lon;timestamp;pressure;altitude;pressure_sealevel;temperature;humidity
38227;BME280;24026;49.446;8.576;2023-12-28T00:00:19;100548.25;;;11.35;53.52
38227;BME280;24026;49.446;8.576;2023-12-28T00:02:39;100567.91;;;11.34;53.67
38227;BME280;24026;49.446;8.576;2023-12-28T00:05:01;100564.47;;;11.33;53.58
38227;BME280;24026;49.446;8.576;2023-12-28T00:07:21;100572.44;;;11.33;53.44
38227;BME280;24026;49.446;8.576;2023-12-28T00:09:41;100575.09;;;11.33;53.42
38227;BME280;24026;49.446;8.576;2023-12-28T00:12:02;100574.28;;;11.32;53.39
38227;BME280;24026;49.446;8.576;2023-12-28T00:14:22;100573.47;;;11.32;53.31
38227;BME280;24026;49.446;8.576;2023-12-28T00:16:43;100579.59;;;11.32;53.33
38227;BME280;24026;49.446;8.576;2023-12-28T00:19:04;100582.25;;;11.32;53.27
38227;BME280;24026;49.446;8.576;2023-12-28T00:21:24;100586.78;;;11.32;53.39
38227;BME280;24026;49.446;8.576;2023-12-28T00:23:44;100581.47;;;11.32;53.45
38227;BME280;24026;49.446;8.576;2023-12-28T00:26:05;100583.31;;;11.31;53.15
38227;BME280;24026;49.446;8.576;2023-12-28T00:28:25;100580.09;;;11.29;53.14
38227;BME280;24026;49.446;8.576;2023-12-28T00:30:46;100579.03;;;11.30;53.23
38227;BME280;24026;49.446;8.576;2023-12-28T00:33:06;100573.72;;;11.30;53.41
38227;BME280;24026;49.446;8.576;2023-12-28T00:35:26;100580.09;;;11.29;53.23
38227;BME280;24026;49.446;8.576;2023-12-28T00:37:47;100573.94;;;11.29;53.28
38227;BME280;24026;49.446;8.576;2023-12-28T00:40:08;100571.28;;;11.29;53.07
38227;BME280;24026;49.446;8.576;2023-12-28T00:42:29;100580.34;;;11.28;53.04
38227;BME280;24026;49.446;8.576;2023-12-28T00:44:49;100572.38;;;11.28;53.03
38227;BME280;24026;49.446;8.576;2023-12-28T00:47:09;100590.16;;;11.27;53.04
38227;BME280;24026;49.446;8.576;2023-12-28T00:49:31;100585.91;;;11.26;53.05
38227;BME280;24026;49.446;8.576;2023-12-28T00:51:51;100591.22;;;11.26;53.23
38227;BME280;24026;49.446;8.576;2023-12-28T00:54:11;100582.41;;;11.26;52.93
38227;BME280;24026;49.446;8.576;2023-12-28T00:56:32;100572.03;;;11.24;52.91
38227;BME280;24026;49.446;8.576;2023-12-28T00:58:52;100561.41;;;11.24;52.98
38227;BME280;24026;49.446;8.576;2023-12-28T01:01:12;100565.88;;;11.24;52.92
38227;BME280;24026;49.446;8.576;2023-12-28T01:03:33;100569.63;;;11.23;52.90
38227;BME280;24026;49.446;8.576;2023-12-28T01:05:53;100568.00;;;11.22;52.95
38227;BME280;24026;49.446;8.576;2023-12-28T01:08:14;100568.00;;;11.22;52.86
38227;BME280;24026;49.446;8.576;2023-12-28T01:10:34;100580.25;;;11.23;52.51
38227;BME280;24026;49.446;8.576;2023-12-28T01:12:55;100578.63;;;11.22;52.69
38227;BME280;24026;49.446;8.576;2023-12-28T01:15:15;100583.16;;;11.21;52.72
38227;BME280;24026;49.446;8.576;2023-12-28T01:17:37;100583.97;;;11.22;52.43
38227;BME280;24026;49.446;8.576;2023-12-28T01:19:58;100591.13;;;11.21;52.64
38227;BME280;24026;49.446;8.576;2023-12-28T01:22:18;100593.81;;;11.21;52.74
38227;BME280;24026;49.446;8.576;2023-12-28T01:24:39;100592.19;;;11.20;52.65
38227;BME280;24026;49.446;8.576;2023-12-28T01:26:59;100597.50;;;11.20;52.62
38227;BME280;24026;49.446;8.576;2023-12-28T01:29:19;100598.53;;;11.19;52.61
38227;BME280;24026;49.446;8.576;2023-12-28T01:31:40;100602.81;;;11.20;52.53
38227;BME280;24026;49.446;8.576;2023-12-28T01:34:00;100604.69;;;11.20;52.65
38227;BME280;24026;49.446;8.576;2023-12-28T01:36:22;100601.19;;;11.19;52.57
38227;BME280;24026;49.446;8.576;2023-12-28T01:38:42;100599.59;;;11.18;52.61
38227;BME280;24026;49.446;8.576;2023-12-28T01:41:03;100579.91;;;11.19;52.71
38227;BME280;24026;49.446;8.576;2023-12-28T01:43:23;100585.50;;;11.18;52.45
38227;BME280;24026;49.446;8.576;2023-12-28T01:45:44;100602.25;;;11.18;52.42
38227;BME280;24026;49.446;8.576;2023-12-28T01:48:05;100590.00;;;11.17;52.54
38227;BME280;24026;49.446;8.576;2023-12-28T01:50:26;100600.41;;;11.19;52.49
38227;BME280;24026;49.446;8.576;2023-12-28T01:52:48;100602.50;;;11.17;52.38
38227;BME280;24026;49.446;8.576;2023-12-28T01:55:10;100604.34;;;11.16;52.29
38227;BME280;24026;49.446;8.576;2023-12-28T01:57:30;100611.28;;;11.17;52.49
38227;BME280;24026;49.446;8.576;2023-12-28T01:59:52;100605.97;;;11.17;52.29
38227;BME280;24026;49.446;8.576;2023-12-28T02:02:13;100609.69;;;11.16;52.22
38227;BME280;24026;49.446;8.576;2023-12-28T02:04:35;100613.13;;;11.17;52.24
38227;BME280;24026;49.446;8.576;2023-12-28T02:06:57;100617.66;;;11.16;52.27
38227;BME280;24026;49.446;8.576;2023-12-28T02:09:17;100632.56;;;11.17;52.18
38227;BME280;24026;49.446;8.576;2023-12-28T02:11:38;100618.47;;;11.17;52.15
38227;BME280;24026;49.446;8.576;2023-12-28T02:13:58;100608.84;;;11.16;52.41
38227;BME280;24026;49.446;8.576;2023-12-28T02:18:50;100622.97;;;11.16;52.26
38227;BME280;24026;49.446;8.576;2023-12-28T02:21:14;100629.09;;;11.17;52.08
38227;BME280;24026;49.446;8.576;2023-12-28T02:23:35;100628.31;;;11.16;52.30
38227;BME280;24026;49.446;8.576;2023-12-28T02:25:55;100622.97;;;11.16;52.17
38227;BME280;24026;49.446;8.576;2023-12-28T02:28:16;100628.31;;;11.16;52.14
38227;BME280;24026;49.446;8.576;2023-12-28T02:30:36;100622.97;;;11.16;52.08
38227;BME280;24026;49.446;8.576;2023-12-28T02:35:33;100620.31;;;11.16;51.90
38227;BME280;24026;49.446;8.576;2023-12-28T02:37:56;100625.41;;;11.18;51.89
38227;BME280;24026;49.446;8.576;2023-12-28T02:40:18;100617.44;;;11.18;51.94
38227;BME280;24026;49.446;8.576;2023-12-28T02:42:39;100610.25;;;11.18;52.03
38227;BME280;24026;49.446;8.576;2023-12-28T02:44:59;100610.25;;;11.18;51.91
38227;BME280;24026;49.446;8.576;2023-12-28T02:47:20;100614.50;;;11.19;51.79
38227;BME280;24026;49.446;8.576;2023-12-28T02:49:40;100600.41;;;11.19;51.65
38227;BME280;24026;49.446;8.576;2023-12-28T02:52:01;100601.19;;;11.19;51.63
38227;BME280;24026;49.446;8.576;2023-12-28T02:54:21;100605.47;;;11.20;51.79
38227;BME280;24026;49.446;8.576;2023-12-28T02:56:42;100602.81;;;11.20;51.54
38227;BME280;24026;49.446;8.576;2023-12-28T02:59:02;100607.34;;;11.20;51.34
38227;BME280;24026;49.446;8.576;2023-12-28T03:01:22;100611.59;;;11.21;51.36
38227;BME280;24026;49.446;8.576;2023-12-28T03:03:43;100607.91;;;11.22;51.39
38227;BME280;24026;49.446;8.576;2023-12-28T03:06:03;100598.88;;;11.23;51.47
38227;BME280;24026;49.446;8.576;2023-12-28T03:08:24;100602.34;;;11.23;51.30
38227;BME280;24026;49.446;8.576;2023-12-28T03:10:44;100606.63;;;11.24;51.25
38227;BME280;24026;49.446;8.576;2023-12-28T03:13:05;100604.75;;;11.25;51.16
38227;BME280;24026;49.446;8.576;2023-12-28T03:15:25;100615.16;;;11.26;51.12
38227;BME280;24026;49.446;8.576;2023-12-28T03:17:46;100624.75;;;11.27;51.01
38227;BME280;24026;49.446;8.576;2023-12-28T03:20:07;100622.91;;;11.28;50.96
38227;BME280;24026;49.446;8.576;2023-12-28T03:22:28;100622.09;;;11.27;50.57
38227;BME280;24026;49.446;8.576;2023-12-28T03:24:48;100629.03;;;11.28;50.81
38227;BME280;24026;49.446;8.576;2023-12-28T03:27:09;100637.56;;;11.30;50.80
38227;BME280;24026;49.446;8.576;2023-12-28T03:29:30;100634.91;;;11.30;50.69
38227;BME280;24026;49.446;8.576;2023-12-28T03:31:50;100625.09;;;11.31;50.67
38227;BME280;24026;49.446;8.576;2023-12-28T03:34:11;100638.97;;;11.33;50.52
38227;BME280;24026;49.446;8.576;2023-12-28T03:36:31;100630.16;;;11.32;50.25
38227;BME280;24026;49.446;8.576;2023-12-28T03:38:51;100629.91;;;11.34;50.24
38227;BME280;24026;49.446;8.576;2023-12-28T03:41:18;100640.31;;;11.36;50.41
38227;BME280;24026;49.446;8.576;2023-12-28T03:43:39;100626.69;;;11.32;50.27
38227;BME280;24026;49.446;8.576;2023-12-28T03:45:59;100615.03;;;11.33;50.16
38227;BME280;24026;49.446;8.576;2023-12-28T03:48:19;100618.47;;;11.34;50.40
38227;BME280;24026;49.446;8.576;2023-12-28T03:50:40;100626.22;;;11.35;50.13
38227;BME280;24026;49.446;8.576;2023-12-28T03:53:00;100628.66;;;11.37;50.25
38227;BME280;24026;49.446;8.576;2023-12-28T03:55:21;100624.13;;;11.37;50.14
38227;BME280;24026;49.446;8.576;2023-12-28T03:57:41;100624.94;;;11.38;49.75
38227;BME280;24026;49.446;8.576;2023-12-28T04:00:02;100638.00;;;11.39;49.97
38227;BME280;24026;49.446;8.576;2023-12-28T04:02:23;100634.28;;;11.40;49.86
38227;BME280;24026;49.446;8.576;2023-12-28T04:04:44;100638.34;;;11.43;49.79
38227;BME280;24026;49.446;8.576;2023-12-28T04:07:05;100633.00;;;11.43;49.75
38227;BME280;24026;49.446;8.576;2023-12-28T04:09:27;100639.94;;;11.44;49.68
38227;BME280;24026;49.446;8.576;2023-12-28T04:11:47;100647.69;;;11.45;49.64
38227;BME280;24026;49.446;8.576;2023-12-28T04:14:08;100658.31;;;11.45;49.66
38227;BME280;24026;49.446;8.576;2023-12-28T04:16:29;100659.94;;;11.46;49.72
38227;BME280;24026;49.446;8.576;2023-12-28T04:18:49;100658.09;;;11.47;49.74
38227;BME280;24026;49.446;8.576;2023-12-28T04:21:11;100659.72;;;11.48;49.60
38227;BME280;24026;49.446;8.576;2023-12-28T04:23:31;100659.47;;;11.49;49.84
38227;BME280;24026;49.446;8.576;2023-12-28T04:25:52;100649.63;;;11.50;49.81
38227;BME280;24026;49.446;8.576;2023-12-28T04:28:12;100652.28;;;11.50;49.87
38227;BME280;24026;49.446;8.576;2023-12-28T04:30:33;100670.69;;;11.52;49.83
38227;BME280;24026;49.446;8.576;2023-12-28T04:32:53;100664.28;;;11.53;49.87
38227;BME280;24026;49.446;8.576;2023-12-28T04:35:14;100678.44;;;11.53;49.81
38227;BME280;24026;49.446;8.576;2023-12-28T04:37:34;100678.44;;;11.53;49.77
38227;BME280;24026;49.446;8.576;2023-12-28T04:39:55;100681.66;;;11.55;49.73
38227;BME280;24026;49.446;8.576;2023-12-28T04:42:15;100677.38;;;11.54;49.78
38227;BME280;24026;49.446;8.576;2023-12-28T04:44:39;100676.88;;;11.57;49.63
38227;BME280;24026;49.446;8.576;2023-12-28T04:46:59;100677.94;;;11.56;49.83
38227;BME280;24026;49.446;8.576;2023-12-28T04:49:19;100668.91;;;11.57;49.74
38227;BME280;24026;49.446;8.576;2023-12-28T04:51:43;100670.75;;;11.57;49.65
38227;BME280;24026;49.446;8.576;2023-12-28T04:54:04;100675.06;;;11.58;49.70
38227;BME280;24026;49.446;8.576;2023-12-28T04:56:24;100673.19;;;11.58;49.75
38227;BME280;24026;49.446;8.576;2023-12-28T04:58:45;100670.53;;;11.58;49.87
38227;BME280;24026;49.446;8.576;2023-12-28T05:01:06;100669.47;;;11.59;49.71
38227;BME280;24026;49.446;8.576;2023-12-28T05:03:26;100667.63;;;11.60;49.77
38227;BME280;24026;49.446;8.576;2023-12-28T05:05:46;100683.59;;;11.60;49.81
38227;BME280;24026;49.446;8.576;2023-12-28T05:08:07;100685.19;;;11.61;49.88
38227;BME280;24026;49.446;8.576;2023-12-28T05:10:27;100688.69;;;11.61;50.03
38227;BME280;24026;49.446;8.576;2023-12-28T05:12:48;100692.16;;;11.62;49.91
38227;BME280;24026;49.446;8.576;2023-12-28T05:15:08;100694.81;;;11.62;50.06
38227;BME280;24026;49.446;8.576;2023-12-28T05:17:29;100699.34;;;11.61;50.21
38227;BME280;24026;49.446;8.576;2023-12-28T05:19:49;100691.09;;;11.63;50.28
38227;BME280;24026;49.446;8.576;2023-12-28T05:22:10;100693.78;;;11.63;50.40
38227;BME280;24026;49.446;8.576;2023-12-28T05:24:31;100698.03;;;11.64;50.44
38227;BME280;24026;49.446;8.576;2023-12-28T05:26:51;100693.53;;;11.64;50.66
38227;BME280;24026;49.446;8.576;2023-12-28T05:29:12;100698.84;;;11.64;50.77
38227;BME280;24026;49.446;8.576;2023-12-28T05:31:32;100709.50;;;11.64;50.87
38227;BME280;24026;49.446;8.576;2023-12-28T05:33:52;100698.84;;;11.64;50.92
38227;BME280;24026;49.446;8.576;2023-12-28T05:36:13;100694.34;;;11.65;51.12
38227;BME280;24026;49.446;8.576;2023-12-28T05:38:33;100705.78;;;11.65;51.37
38227;BME280;24026;49.446;8.576;2023-12-28T05:40:53;100703.13;;;11.65;51.41
38227;BME280;24026;49.446;8.576;2023-12-28T05:43:14;100702.09;;;11.66;51.71
38227;BME280;24026;49.446;8.576;2023-12-28T05:45:34;100707.41;;;11.66;51.76
38227;BME280;24026;49.446;8.576;2023-12-28T05:47:55;100714.31;;;11.67;51.98
38227;BME280;24026;49.446;8.576;2023-12-28T05:50:15;100701.84;;;11.68;51.93
38227;BME280;24026;49.446;8.576;2023-12-28T05:52:35;100701.00;;;11.67;51.95
38227;BME280;24026;49.446;8.576;2023-12-28T05:54:56;100701.84;;;11.68;52.35
38227;BME280;24026;49.446;8.576;2023-12-28T05:57:16;100693.84;;;11.68;52.32
38227;BME280;24026;49.446;8.576;2023-12-28T05:59:38;100686.66;;;11.68;52.61
38227;BME280;24026;49.446;8.576;2023-12-28T06:02:01;100691.19;;;11.68;52.59
38227;BME280;24026;49.446;8.576;2023-12-28T06:04:21;100697.31;;;11.68;52.65
38227;BME280;24026;49.446;8.576;2023-12-28T06:06:41;100699.75;;;11.70;52.80
38227;BME280;24026;49.446;8.576;2023-12-28T06:09:02;100703.44;;;11.69;52.93
38227;BME280;24026;49.446;8.576;2023-12-28T06:11:23;100713.84;;;11.71;52.98
38227;BME280;24026;49.446;8.576;2023-12-28T06:13:43;100710.38;;;11.70;53.04
38227;BME280;24026;49.446;8.576;2023-12-28T06:16:04;100713.84;;;11.71;53.15
38227;BME280;24026;49.446;8.576;2023-12-28T06:18:24;100728.00;;;11.71;53.20
38227;BME280;24026;49.446;8.576;2023-12-28T06:20:45;100732.50;;;11.71;53.52
38227;BME280;24026;49.446;8.576;2023-12-28T06:23:06;100732.50;;;11.71;53.39
38227;BME280;24026;49.446;8.576;2023-12-28T06:25:27;100739.44;;;11.72;53.51
38227;BME280;24026;49.446;8.576;2023-12-28T06:27:48;100725.34;;;11.71;53.68
38227;BME280;24026;49.446;8.576;2023-12-28T06:30:09;100726.13;;;11.72;53.68
38227;BME280;24026;49.446;8.576;2023-12-28T06:32:29;100743.69;;;11.73;53.74
38227;BME280;24026;49.446;8.576;2023-12-28T06:34:50;100738.38;;;11.73;53.99
38227;BME280;24026;49.446;8.576;2023-12-28T06:37:10;100749.84;;;11.73;53.71
38227;BME280;24026;49.446;8.576;2023-12-28T06:39:30;100744.53;;;11.73;53.98
38227;BME280;24026;49.446;8.576;2023-12-28T06:41:51;100739.19;;;11.73;53.93
38227;BME280;24026;49.446;8.576;2023-12-28T06:44:11;100748.00;;;11.74;53.95
38227;BME280;24026;49.446;8.576;2023-12-28T06:46:34;100742.66;;;11.74;54.31
38227;BME280;24026;49.446;8.576;2023-12-28T06:48:54;100742.66;;;11.74;54.25
38227;BME280;24026;49.446;8.576;2023-12-28T06:51:19;100737.34;;;11.74;54.65
38227;BME280;24026;49.446;8.576;2023-12-28T06:53:40;100732.81;;;11.74;54.56
38227;BME280;24026;49.446;8.576;2023-12-28T06:56:00;100729.34;;;11.74;54.50
38227;BME280;24026;49.446;8.576;2023-12-28T06:58:21;100728.31;;;11.75;54.72
38227;BME280;24026;49.446;8.576;2023-12-28T07:00:41;100730.97;;;11.75;54.88
38227;BME280;24026;49.446;8.576;2023-12-28T07:03:04;100729.91;;;11.76;55.07
38227;BME280;24026;49.446;8.576;2023-12-28T07:05:24;100723.78;;;11.75;55.08
38227;BME280;24026;49.446;8.576;2023-12-28T07:07:44;100728.31;;;11.75;55.27
38227;BME280;24026;49.446;8.576;2023-12-28T07:10:05;100729.13;;;11.75;55.37
38227;BME280;24026;49.446;8.576;2023-12-28T07:12:26;100727.25;;;11.76;55.38
38227;BME280;24026;49.446;8.576;2023-12-28T07:14:46;100727.25;;;11.76;55.56
38227;BME280;24026;49.446;8.576;2023-12-28T07:17:07;100737.91;;;11.76;55.68
38227;BME280;24026;49.446;8.576;2023-12-28T07:19:29;100740.56;;;11.76;55.60
38227;BME280;24026;49.446;8.576;2023-12-28T07:21:49;100743.22;;;11.76;55.59
38227;BME280;24026;49.446;8.576;2023-12-28T07:24:09;100743.22;;;11.76;55.71
38227;BME280;24026;49.446;8.576;2023-12-28T07:26:30;100744.06;;;11.76;55.81
38227;BME280;24026;49.446;8.576;2023-12-28T07:28:50;100746.72;;;11.76;55.77
38227;BME280;24026;49.446;8.576;2023-12-28T07:31:11;100751.81;;;11.78;55.98
38227;BME280;24026;49.446;8.576;2023-12-28T07:33:31;100762.47;;;11.78;56.20
38227;BME280;24026;49.446;8.576;2023-12-28T07:35:52;100757.13;;;11.78;56.35
38227;BME280;24026;49.446;8.576;2023-12-28T07:38:12;100773.09;;;11.78;56.17
38227;BME280;24026;49.446;8.576;2023-12-28T07:40:33;100778.44;;;11.78;56.41
38227;BME280;24026;49.446;8.576;2023-12-28T07:42:53;100773.91;;;11.78;56.49
38227;BME280;24026;49.446;8.576;2023-12-28T07:45:14;100780.03;;;11.79;56.39
38227;BME280;24026;49.446;8.576;2023-12-28T07:47:34;100779.00;;;11.80;56.65
38227;BME280;24026;49.446;8.576;2023-12-28T07:49:55;100781.66;;;11.80;56.61
38227;BME280;24026;49.446;8.576;2023-12-28T07:52:15;100776.34;;;11.80;56.72
38227;BME280;24026;49.446;8.576;2023-12-28T07:54:35;100774.69;;;11.79;56.71
38227;BME280;24026;49.446;8.576;2023-12-28T07:56:56;100776.34;;;11.80;56.66
38227;BME280;24026;49.446;8.576;2023-12-28T07:59:16;100781.66;;;11.80;56.60
38227;BME280;24026;49.446;8.576;2023-12-28T08:01:37;100777.94;;;11.81;56.90
38227;BME280;24026;49.446;8.576;2023-12-28T08:03:57;100777.94;;;11.81;56.86
38227;BME280;24026;49.446;8.576;2023-12-28T08:06:18;100783.25;;;11.81;56.75
38227;BME280;24026;49.446;8.576;2023-12-28T08:08:38;100780.59;;;11.81;57.17
38227;BME280;24026;49.446;8.576;2023-12-28T08:10:58;100788.59;;;11.81;57.28
38227;BME280;24026;49.446;8.576;2023-12-28T08:13:19;100791.00;;;11.82;57.38
38227;BME280;24026;49.446;8.576;2023-12-28T08:15:39;100797.41;;;11.81;57.54
38227;BME280;24026;49.446;8.576;2023-12-28T08:18:00;100796.34;;;11.82;57.39
38227;BME280;24026;49.446;8.576;2023-12-28T08:20:20;100797.16;;;11.83;57.52
38227;BME280;24026;49.446;8.576;2023-12-28T08:22:41;100800.63;;;11.83;57.37
38227;BME280;24026;49.446;8.576;2023-12-28T08:25:01;100800.63;;;11.83;57.56
38227;BME280;24026;49.446;8.576;2023-12-28T08:27:22;100790.78;;;11.84;57.79
38227;BME280;24026;49.446;8.576;2023-12-28T08:29:42;100788.09;;;11.84;57.60
38227;BME280;24026;49.446;8.576;2023-12-28T08:32:03;100795.06;;;11.85;57.71
38227;BME280;24026;49.446;8.576;2023-12-28T08:34:23;100792.41;;;11.85;57.77
38227;BME280;24026;49.446;8.576;2023-12-28T08:36:44;100789.72;;;11.85;57.69
38227;BME280;24026;49.446;8.576;2023-12-28T08:39:04;100779.88;;;11.85;57.72
38227;BME280;24026;49.446;8.576;2023-12-28T08:41:24;100786.00;;;11.86;57.95
38227;BME280;24026;49.446;8.576;2023-12-28T08:43:46;100790.28;;;11.87;57.74
38227;BME280;24026;49.446;8.576;2023-12-28T08:46:07;100784.16;;;11.86;57.84
38227;BME280;24026;49.446;8.576;2023-12-28T08:48:28;100773.28;;;11.88;57.92
38227;BME280;24026;49.446;8.576;2023-12-28T08:50:49;100791.91;;;11.88;57.86
38227;BME280;24026;49.446;8.576;2023-12-28T08:53:09;100785.53;;;11.89;57.86
38227;BME280;24026;49.446;8.576;2023-12-28T08:55:29;100790.84;;;11.89;57.88
38227;BME280;24026;49.446;8.576;2023-12-28T08:57:50;100798.59;;;11.91;58.13
38227;BME280;24026;49.446;8.576;2023-12-28T09:00:11;100796.81;;;11.91;57.79
38227;BME280;24026;49.446;8.576;2023-12-28T09:02:31;100806.41;;;11.92;57.93
38227;BME280;24026;49.446;8.576;2023-12-28T09:04:52;100813.34;;;11.93;58.05
38227;BME280;24026;49.446;8.576;2023-12-28T09:07:12;100805.13;;;11.95;58.08
38227;BME280;24026;49.446;8.576;2023-12-28T09:09:33;100798.97;;;11.94;57.86
38227;BME280;24026;49.446;8.576;2023-12-28T09:11:53;100800.59;;;11.95;57.92
38227;BME280;24026;49.446;8.576;2023-12-28T09:14:14;100792.59;;;11.95;58.13
38227;BME280;24026;49.446;8.576;2023-12-28T09:16:34;100806.72;;;11.96;58.20
38227;BME280;24026;49.446;8.576;2023-12-28T09:18:55;100803.81;;;11.97;58.03
38227;BME280;24026;49.446;8.576;2023-12-28T09:21:17;100804.66;;;11.98;58.08
38227;BME280;24026;49.446;8.576;2023-12-28T09:23:38;100809.97;;;11.98;58.04
38227;BME280;24026;49.446;8.576;2023-12-28T09:26:02;100809.72;;;11.99;58.10
38227;BME280;24026;49.446;8.576;2023-12-28T09:28:26;100811.56;;;11.99;58.31
38227;BME280;24026;49.446;8.576;2023-12-28T09:30:46;100817.69;;;11.99;58.32
38227;BME280;24026;49.446;8.576;2023-12-28T09:33:07;100812.38;;;11.99;58.21
38227;BME280;24026;49.446;8.576;2023-12-28T09:35:27;100812.38;;;11.99;58.16
38227;BME280;24026;49.446;8.576;2023-12-28T09:37:47;100814.78;;;12.01;58.15
38227;BME280;24026;49.446;8.576;2023-12-28T09:40:09;100819.09;;;12.02;58.32
38227;BME280;24026;49.446;8.576;2023-12-28T09:42:34;100835.88;;;12.02;58.31
38227;BME280;24026;49.446;8.576;2023-12-28T09:44:59;100833.22;;;12.02;58.32
38227;BME280;24026;49.446;8.576;2023-12-28T09:47:20;100837.50;;;12.03;58.41
38227;BME280;24026;49.446;8.576;2023-12-28T09:49:41;100838.28;;;12.04;58.41
38227;BME280;24026;49.446;8.576;2023-12-28T09:52:02;100832.97;;;12.04;58.39
38227;BME280;24026;49.446;8.576;2023-12-28T09:54:23;100814.31;;;12.04;58.40
38227;BME280;24026;49.446;8.576;2023-12-28T09:56:44;100816.75;;;12.05;58.45
38227;BME280;24026;49.446;8.576;2023-12-28T09:59:06;100821.28;;;12.05;58.41
38227;BME280;24026;49.446;8.576;2023-12-28T10:01:26;100818.63;;;12.05;58.54
38227;BME280;24026;49.446;8.576;2023-12-28T10:03:47;100822.06;;;12.05;58.66
38227;BME280;24026;49.446;8.576;2023-12-28T10:06:07;100825.53;;;12.06;58.57
38227;BME280;24026;49.446;8.576;2023-12-28T10:08:28;100823.69;;;12.07;58.82
38227;BME280;24026;49.446;8.576;2023-12-28T10:10:49;100811.19;;;12.07;58.74
38227;BME280;24026;49.446;8.576;2023-12-28T10:13:14;100813.84;;;12.07;58.82
38227;BME280;24026;49.446;8.576;2023-12-28T10:15:38;100808.50;;;12.07;58.77
38227;BME280;24026;49.446;8.576;2023-12-28T10:17:58;100801.31;;;12.08;58.67
38227;BME280;24026;49.446;8.576;2023-12-28T10:20:21;100802.94;;;12.09;58.86
38227;BME280;24026;49.446;8.576;2023-12-28T10:22:43;100807.25;;;12.10;58.87
38227;BME280;24026;49.446;8.576;2023-12-28T10:25:04;100807.25;;;12.10;58.84
38227;BME280;24026;49.446;8.576;2023-12-28T10:27:28;100800.03;;;12.10;59.01
38227;BME280;24026;49.446;8.576;2023-12-28T10:29:48;100793.91;;;12.10;59.13
38227;BME280;24026;49.446;8.576;2023-12-28T10:32:09;100793.69;;;12.11;58.99
38227;BME280;24026;49.446;8.576;2023-12-28T10:34:29;100791.00;;;12.11;58.95
38227;BME280;24026;49.446;8.576;2023-12-28T10:36:50;100794.47;;;12.12;59.25
38227;BME280;24026;49.446;8.576;2023-12-28T10:39:11;100788.34;;;12.11;59.06
38227;BME280;24026;49.446;8.576;2023-12-28T10:41:35;100794.47;;;12.12;59.25
38227;BME280;24026;49.446;8.576;2023-12-28T10:44:04;100789.94;;;12.12;59.22
38227;BME280;24026;49.446;8.576;2023-12-28T10:46:26;100790.75;;;12.13;59.29
38227;BME280;24026;49.446;8.576;2023-12-28T10:48:51;100789.94;;;12.12;59.19
38227;BME280;24026;49.446;8.576;2023-12-28T10:51:13;100795.03;;;12.14;59.38
38227;BME280;24026;49.446;8.576;2023-12-28T10:53:59;100796.91;;;12.13;59.12
38227;BME280;24026;49.446;8.576;2023-12-28T10:56:35;100797.69;;;12.14;59.49
38227;BME280;24026;49.446;8.576;2023-12-28T11:01:42;100792.13;;;12.15;59.51
38227;BME280;24026;49.446;8.576;2023-12-28T11:04:24;100791.34;;;12.15;59.40
38227;BME280;24026;49.446;8.576;2023-12-28T11:06:49;100783.09;;;12.16;59.52
38227;BME280;24026;49.446;8.576;2023-12-28T11:09:10;100789.22;;;12.17;59.55
38227;BME280;24026;49.446;8.576;2023-12-28T11:11:32;100788.19;;;12.18;59.46
38227;BME280;24026;49.446;8.576;2023-12-28T11:13:54;100788.19;;;12.18;59.72
38227;BME280;24026;49.446;8.576;2023-12-28T11:16:16;100781.00;;;12.18;59.59
38227;BME280;24026;49.446;8.576;2023-12-28T11:18:37;100781.78;;;12.19;59.47
38227;BME280;24026;49.446;8.576;2023-12-28T11:20:57;100781.78;;;12.19;59.37
38227;BME280;24026;49.446;8.576;2023-12-28T11:23:18;100772.75;;;12.20;59.46
38227;BME280;24026;49.446;8.576;2023-12-28T11:25:39;100766.59;;;12.19;59.54
38227;BME280;24026;49.446;8.576;2023-12-28T11:28:00;100769.25;;;12.19;59.60
38227;BME280;24026;49.446;8.576;2023-12-28T11:30:28;100766.59;;;12.19;59.76
38227;BME280;24026;49.446;8.576;2023-12-28T11:32:56;100763.13;;;12.19;59.46
38227;BME280;24026;49.446;8.576;2023-12-28T11:35:17;100752.72;;;12.17;59.69
38227;BME280;24026;49.446;8.576;2023-12-28T11:37:40;100757.00;;;12.18;59.78
38227;BME280;24026;49.446;8.576;2023-12-28T11:40:20;100758.03;;;12.17;59.64
38227;BME280;24026;49.446;8.576;2023-12-28T11:42:50;100758.03;;;12.17;59.63
38227;BME280;24026;49.446;8.576;2023-12-28T11:45:30;100753.78;;;12.16;59.57
38227;BME280;24026;49.446;8.576;2023-12-28T11:48:01;100753.78;;;12.16;59.73
38227;BME280;24026;49.446;8.576;2023-12-28T11:50:22;100751.13;;;12.16;59.71
38227;BME280;24026;49.446;8.576;2023-12-28T11:52:49;100746.59;;;12.17;59.51
38227;BME280;24026;49.446;8.576;2023-12-28T11:55:09;100740.47;;;12.16;59.59
38227;BME280;24026;49.446;8.576;2023-12-28T11:57:31;100735.13;;;12.16;59.79
38227;BME280;24026;49.446;8.576;2023-12-28T11:59:57;100742.31;;;12.16;59.57
38227;BME280;24026;49.446;8.576;2023-12-28T12:02:18;100735.94;;;12.17;59.39
38227;BME280;24026;49.446;8.576;2023-12-28T12:04:39;100736.72;;;12.17;59.75
38227;BME280;24026;49.446;8.576;2023-12-28T12:07:04;100739.41;;;12.17;59.69
38227;BME280;24026;49.446;8.576;2023-12-28T12:09:26;100735.94;;;12.17;59.84
38227;BME280;24026;49.446;8.576;2023-12-28T12:11:47;100727.13;;;12.16;59.81
38227;BME280;24026;49.446;8.576;2023-12-28T12:14:09;100727.94;;;12.17;59.66
38227;BME280;24026;49.446;8.576;2023-12-28T12:16:31;100734.91;;;12.18;59.63
38227;BME280;24026;49.446;8.576;2023-12-28T12:18:53;100737.56;;;12.18;59.91
38227;BME280;24026;49.446;8.576;2023-12-28T12:21:15;100731.41;;;12.17;59.99
38227;BME280;24026;49.446;8.576;2023-12-28T12:23:37;100738.34;;;12.18;59.82
38227;BME280;24026;49.446;8.576;2023-12-28T12:25:57;100734.91;;;12.18;60.01